createdAt,value
2019-05-03T00:02:41.618Z,12.53
2019-05-03T00:05:48.403Z,9.97
2019-05-03T00:08:18.009Z,10.20
2019-05-03T00:10:47.586Z,12.03
2019-05-03T00:13:17.017Z,11.43
2019-05-03T00:15:55.150Z,15.10
2019-05-03T00:18:24.544Z,12.23
2019-05-03T00:20:53.824Z,11.77
2019-05-03T00:23:23.207Z,12.03
2019-05-03T00:25:52.874Z,15.47
2019-05-03T00:28:22.294Z,12.70
2019-05-03T00:30:51.941Z,11.97
2019-05-03T00:33:22.417Z,11.33
2019-05-03T00:36:22.181Z,11.57
2019-05-03T00:38:53.396Z,9.23
2019-05-03T00:41:22.729Z,11.87
2019-05-03T00:46:38.078Z,13.50
2019-05-03T00:49:07.402Z,10.60
2019-05-03T00:51:36.782Z,14.50
2019-05-03T00:54:06.088Z,11.47
2019-05-03T00:56:35.483Z,14.77
2019-05-03T00:59:04.926Z,20.80
2019-05-03T01:01:34.309Z,12.07
2019-05-03T01:04:03.799Z,13.17
2019-05-03T01:06:33.126Z,12.73
2019-05-03T01:09:04.098Z,8.83
2019-05-03T01:11:33.392Z,20.47
2019-05-03T01:14:02.807Z,9.73
2019-05-03T01:16:32.216Z,15.70
2019-05-03T01:19:02.605Z,10.70
2019-05-03T01:21:32.579Z,11.33
2019-05-03T01:24:01.922Z,8.10
2019-05-03T01:26:31.971Z,14.73
2019-05-03T01:29:02.743Z,7.53
2019-05-03T01:31:32.190Z,11.17
2019-05-03T01:34:02.390Z,14.23
2019-05-03T01:36:32.128Z,11.00
2019-05-03T01:39:02.149Z,11.87
2019-05-03T01:41:35.027Z,12.30
2019-05-03T01:44:04.506Z,5.80
2019-05-03T01:46:33.917Z,13.90
2019-05-03T01:49:09.907Z,14.20
2019-05-03T01:52:13.672Z,7.10
2019-05-03T01:54:43.075Z,9.30
2019-05-03T01:57:12.374Z,11.13
2019-05-03T01:59:42.573Z,8.77
2019-05-03T02:02:24.667Z,8.33
2019-05-03T02:05:22.528Z,17.93
2019-05-03T02:07:52.022Z,9.80
2019-05-03T02:10:22.662Z,11.80
2019-05-03T02:12:52.311Z,12.87
2019-05-03T02:15:22.159Z,9.20
2019-05-03T02:17:52.027Z,13.67
2019-05-03T02:20:21.912Z,9.10
2019-05-03T02:22:52.171Z,10.30
2019-05-03T02:25:21.861Z,12.17
2019-05-03T02:27:52.719Z,11.20
2019-05-03T02:30:24.979Z,12.67
2019-05-03T02:32:53.532Z,8.80
2019-05-03T02:35:23.007Z,12.43
2019-05-03T02:37:55.147Z,8.60
2019-05-03T02:40:25.033Z,12.10
2019-05-03T02:43:11.143Z,12.00
2019-05-03T02:46:02.312Z,9.47
2019-05-03T02:48:37.642Z,10.60
2019-05-03T02:51:07.032Z,14.77
2019-05-03T02:53:36.294Z,12.30
2019-05-03T02:56:15.154Z,12.57
2019-05-03T02:58:36.811Z,10.37
2019-05-03T03:01:06.850Z,10.07
2019-05-03T03:03:36.641Z,8.83
2019-05-03T03:06:07.023Z,12.80
2019-05-03T03:08:37.981Z,12.40
2019-05-03T03:11:08.638Z,10.37
2019-05-03T03:13:39.126Z,8.83
2019-05-03T03:16:10.038Z,8.30
2019-05-03T03:18:40.651Z,9.03
2019-05-03T03:21:16.066Z,10.27
2019-05-03T03:24:06.527Z,9.63
2019-05-03T03:26:42.797Z,8.50
2019-05-03T03:29:10.916Z,7.97
2019-05-03T03:32:08.905Z,9.43
2019-05-03T03:34:40.042Z,10.67
2019-05-03T03:37:10.532Z,8.70
2019-05-03T03:39:40.569Z,9.70
2019-05-03T03:42:12.555Z,6.90
2019-05-03T03:44:42.142Z,12.47
2019-05-03T03:47:16.633Z,8.13
2019-05-03T03:49:48.009Z,9.77
2019-05-03T03:52:19.560Z,9.87
2019-05-03T03:54:49.947Z,12.23
2019-05-03T03:57:20.399Z,9.63
2019-05-03T03:59:50.097Z,8.90
2019-05-03T04:02:19.787Z,8.73
2019-05-03T04:04:49.299Z,9.47
2019-05-03T04:07:18.576Z,9.33
2019-05-03T04:09:47.925Z,11.40
2019-05-03T04:12:17.943Z,8.67
2019-05-03T04:14:56.007Z,8.03
2019-05-03T04:17:47.475Z,6.80
2019-05-03T04:20:19.514Z,8.90
2019-05-03T04:22:48.791Z,10.50
2019-05-03T04:25:18.192Z,9.77
2019-05-03T04:27:47.648Z,12.47
2019-05-03T04:30:16.946Z,15.20
2019-05-03T04:32:46.303Z,13.87
2019-05-03T04:35:16.385Z,14.20
2019-05-03T04:37:46.007Z,14.43
2019-05-03T04:40:15.864Z,10.43
2019-05-03T04:42:46.463Z,12.67
2019-05-03T04:45:16.702Z,10.57
2019-05-03T04:47:46.526Z,12.87
2019-05-03T04:50:16.574Z,14.40
2019-05-03T04:52:46.535Z,12.17
2019-05-03T04:55:16.358Z,13.80
2019-05-03T04:57:50.184Z,13.67
2019-05-03T05:00:17.333Z,11.93
2019-05-03T05:02:46.599Z,9.57
2019-05-03T05:05:15.795Z,10.47
2019-05-03T05:07:45.823Z,10.37
2019-05-03T05:10:15.659Z,11.87
2019-05-03T05:12:45.866Z,8.00
2019-05-03T05:15:15.800Z,8.47
2019-05-03T05:17:52.014Z,13.17
2019-05-03T05:20:31.398Z,8.63
2019-05-03T05:23:00.736Z,8.17
2019-05-03T05:25:32.519Z,11.93
2019-05-03T05:28:17.749Z,11.77
2019-05-03T05:30:47.014Z,8.33
2019-05-03T05:33:22.696Z,9.10
2019-05-03T05:35:52.285Z,15.00
2019-05-03T05:38:21.489Z,7.93
2019-05-03T05:40:50.788Z,10.57
2019-05-03T05:43:19.992Z,6.70
2019-05-03T05:45:49.353Z,5.60
2019-05-03T05:48:24.610Z,5.20
2019-05-03T05:50:55.284Z,10.80
2019-05-03T05:53:44.776Z,8.23
2019-05-03T05:56:35.819Z,8.23
2019-05-03T05:59:10.354Z,11.10
2019-05-03T06:01:47.960Z,9.93
2019-05-03T06:04:17.184Z,4.27
2019-05-03T06:06:55.372Z,7.47
2019-05-03T06:09:34.451Z,4.37
2019-05-03T06:12:25.972Z,8.07
2019-05-03T06:14:58.747Z,4.97
2019-05-03T06:17:38.052Z,7.73
2019-05-03T06:20:32.679Z,4.97
2019-05-03T06:23:19.962Z,7.50
2019-05-03T06:25:49.159Z,6.37
2019-05-03T06:28:35.104Z,5.50
2019-05-03T06:31:22.698Z,5.97
2019-05-03T06:33:52.565Z,6.73
2019-05-03T06:36:21.982Z,6.60
2019-05-03T06:38:51.314Z,6.50
2019-05-03T06:41:20.560Z,6.93
2019-05-03T06:43:49.766Z,6.23
2019-05-03T06:46:23.556Z,6.23
2019-05-03T06:48:51.630Z,8.40
2019-05-03T06:51:20.796Z,4.13
2019-05-03T06:53:50.712Z,7.27
2019-05-03T06:56:31.371Z,6.77
2019-05-03T06:59:00.617Z,3.87
2019-05-03T07:01:55.201Z,4.50
2019-05-03T07:04:28.297Z,4.60
2019-05-03T07:07:27.881Z,6.50
2019-05-03T07:10:18.673Z,5.27
2019-05-03T07:13:01.167Z,7.23
2019-05-03T07:15:30.509Z,3.73
2019-05-03T07:17:59.767Z,9.10
2019-05-03T07:20:30.626Z,4.90
2019-05-03T07:23:00.053Z,5.03
2019-05-03T07:25:29.265Z,8.47
2019-05-03T07:27:58.463Z,6.23
2019-05-03T07:30:27.901Z,7.67
2019-05-03T07:33:01.760Z,7.13
2019-05-03T07:35:30.988Z,4.10
2019-05-03T07:38:00.285Z,7.27
2019-05-03T07:40:29.552Z,3.17
2019-05-03T07:42:58.813Z,7.03
2019-05-03T07:45:28.203Z,3.73
2019-05-03T07:47:57.398Z,4.10
2019-05-03T07:50:27.684Z,6.80
2019-05-03T07:52:56.898Z,5.40
2019-05-03T07:55:45.512Z,5.87
2019-05-03T07:58:18.161Z,5.50
2019-05-03T08:01:02.570Z,5.13
2019-05-03T08:03:20.184Z,7.77
2019-05-03T08:05:49.562Z,4.63
2019-05-03T08:08:18.835Z,6.30
2019-05-03T08:10:51.034Z,7.90
2019-05-03T08:13:20.313Z,7.60
2019-05-03T08:15:49.588Z,4.77
2019-05-03T08:18:18.927Z,8.63
2019-05-03T08:20:48.150Z,4.77
2019-05-03T08:23:26.504Z,4.77
2019-05-03T08:25:50.791Z,5.27
2019-05-03T08:28:19.225Z,5.90
2019-05-03T08:31:06.034Z,2.87
2019-05-03T08:33:55.330Z,7.97
2019-05-03T08:36:24.903Z,5.63
2019-05-03T08:38:56.380Z,4.40
2019-05-03T08:41:26.888Z,4.30
2019-05-03T08:43:56.155Z,3.27
2019-05-03T08:46:25.565Z,7.43
2019-05-03T08:48:54.985Z,7.47
2019-05-03T08:51:25.062Z,5.63
2019-05-03T08:53:55.964Z,4.13
2019-05-03T08:56:25.497Z,7.70
2019-05-03T08:58:55.452Z,5.10
2019-05-03T09:01:30.729Z,3.23
2019-05-03T09:03:59.965Z,2.73
2019-05-03T09:06:29.209Z,3.07
2019-05-03T09:08:58.450Z,3.17
2019-05-03T09:11:33.942Z,4.40
2019-05-03T09:14:01.438Z,2.63
2019-05-03T09:16:31.615Z,3.17
2019-05-03T09:19:00.849Z,4.00
2019-05-03T09:21:30.118Z,2.27
2019-05-03T09:23:59.406Z,6.00
2019-05-03T09:26:29.668Z,4.33
2019-05-03T09:28:59.061Z,2.90
2019-05-03T09:31:28.346Z,3.50
2019-05-03T09:33:57.559Z,3.07
2019-05-03T09:36:26.849Z,2.90
2019-05-03T09:38:56.264Z,1.70
2019-05-03T09:41:25.811Z,3.20
2019-05-03T09:43:55.583Z,3.17
2019-05-03T09:46:26.546Z,3.70
2019-05-03T09:49:09.514Z,6.97
2019-05-03T09:51:26.978Z,3.77
2019-05-03T09:54:01.442Z,3.83
2019-05-03T09:56:57.593Z,2.77
2019-05-03T09:59:28.849Z,4.83
2019-05-03T10:01:59.478Z,2.73
2019-05-03T10:04:28.704Z,2.97
2019-05-03T10:06:57.993Z,2.60
2019-05-03T10:09:27.558Z,3.80
2019-05-03T10:11:56.900Z,4.83
2019-05-03T10:14:26.165Z,3.93
2019-05-03T10:17:05.408Z,4.70
2019-05-03T10:19:39.866Z,4.10
2019-05-03T10:22:06.096Z,3.07
2019-05-03T10:24:37.602Z,6.33
2019-05-03T10:27:06.672Z,2.87
2019-05-03T10:29:35.988Z,4.20
2019-05-03T10:32:25.356Z,3.80
2019-05-03T10:34:57.108Z,3.77
2019-05-03T10:37:35.663Z,5.07
2019-05-03T10:40:07.902Z,5.47
2019-05-03T10:42:35.829Z,4.17
2019-05-03T10:45:05.860Z,3.00
2019-05-03T10:47:38.334Z,4.37
2019-05-03T10:50:07.866Z,5.00
2019-05-03T10:52:41.895Z,7.70
2019-05-03T10:55:11.881Z,5.33
2019-05-03T10:57:45.627Z,2.60
2019-05-03T11:00:41.612Z,7.93
2019-05-03T11:02:54.978Z,6.87
2019-05-03T11:05:24.127Z,4.03
2019-05-03T11:07:55.484Z,6.30
2019-05-03T11:10:25.284Z,3.37
2019-05-03T11:13:15.462Z,5.13
2019-05-03T11:15:44.745Z,6.83
2019-05-03T11:18:14.702Z,2.40
2019-05-03T11:20:45.310Z,4.17
2019-05-03T11:23:15.131Z,5.90
2019-05-03T11:25:45.206Z,7.10
2019-05-03T11:28:24.799Z,6.33
2019-05-03T11:31:01.694Z,5.60
2019-05-03T11:33:40.142Z,6.63
2019-05-03T11:36:14.967Z,4.57
2019-05-03T11:38:46.196Z,4.20
2019-05-03T11:41:23.343Z,7.57
2019-05-03T11:43:46.383Z,3.47
2019-05-03T11:46:15.694Z,2.80
2019-05-03T11:48:45.513Z,5.47
2019-05-03T11:51:15.243Z,4.37
2019-05-03T11:53:45.120Z,5.00
2019-05-03T11:56:14.836Z,4.67
2019-05-03T11:58:45.688Z,6.70
2019-05-03T12:01:25.421Z,5.47
2019-05-03T12:03:57.398Z,7.13
2019-05-03T12:06:26.778Z,7.00
2019-05-03T12:08:56.065Z,5.70
2019-05-03T12:11:26.484Z,6.17
2019-05-03T12:14:11.622Z,4.97
2019-05-03T12:17:11.676Z,3.07
2019-05-03T12:19:19.701Z,4.43
2019-05-03T12:21:45.937Z,2.07
2019-05-03T12:24:17.871Z,4.83
2019-05-03T12:26:47.636Z,4.60
2019-05-03T12:29:16.903Z,6.57
2019-05-03T12:31:46.275Z,6.90
2019-05-03T12:34:15.965Z,5.57
2019-05-03T12:36:45.393Z,3.93
2019-05-03T12:39:24.390Z,3.63
2019-05-03T12:41:48.658Z,3.67
2019-05-03T12:44:17.828Z,5.33
2019-05-03T12:46:47.101Z,4.40
2019-05-03T12:49:16.313Z,5.03
2019-05-03T12:51:45.593Z,5.53
2019-05-03T12:54:15.250Z,5.80
2019-05-03T12:56:45.353Z,4.00
2019-05-03T12:59:44.802Z,3.73
2019-05-03T13:02:28.379Z,6.50
2019-05-03T13:04:57.565Z,7.50
2019-05-03T13:07:34.676Z,5.07
2019-05-03T13:10:05.260Z,4.73
2019-05-03T13:12:34.809Z,3.80
2019-05-03T13:15:05.096Z,6.70
2019-05-03T13:17:37.749Z,4.13
2019-05-03T13:20:28.291Z,3.00
2019-05-03T13:22:57.483Z,4.10
2019-05-03T13:25:26.705Z,4.03
2019-05-03T13:27:56.007Z,3.67
2019-05-03T13:30:25.306Z,5.90
2019-05-03T13:32:55.003Z,4.87
2019-05-03T13:35:25.658Z,5.17
2019-05-03T13:37:55.641Z,7.93
2019-05-03T13:40:25.138Z,5.87
2019-05-03T13:43:01.729Z,3.50
2019-05-03T13:45:25.342Z,4.60
2019-05-03T13:47:55.328Z,7.03
2019-05-03T13:50:24.780Z,5.93
2019-05-03T13:52:55.807Z,3.87
2019-05-03T13:55:24.914Z,5.47
2019-05-03T13:57:54.830Z,4.97
2019-05-03T14:00:24.766Z,3.30
2019-05-03T14:02:56.230Z,4.87
2019-05-03T14:05:25.363Z,5.63
2019-05-03T14:07:56.345Z,3.57
2019-05-03T14:10:25.483Z,7.77
2019-05-03T14:12:54.899Z,7.33
2019-05-03T14:15:25.515Z,5.53
2019-05-03T14:17:54.809Z,3.13
2019-05-03T14:20:51.281Z,3.20
2019-05-03T14:23:20.508Z,6.20
2019-05-03T14:25:49.850Z,6.33
2019-05-03T14:28:19.232Z,5.80
2019-05-03T14:30:48.480Z,6.07
2019-05-03T14:33:17.697Z,3.87
2019-05-03T14:35:47.013Z,6.07
2019-05-03T14:38:16.283Z,6.13
2019-05-03T14:40:47.344Z,3.23
2019-05-03T14:43:16.478Z,4.67
2019-05-03T14:46:05.565Z,4.87
2019-05-03T14:48:35.169Z,4.57
2019-05-03T14:51:05.460Z,4.90
2019-05-03T14:53:34.970Z,4.40
2019-05-03T14:56:14.977Z,5.57
2019-05-03T14:59:08.909Z,7.33
2019-05-03T15:01:47.055Z,6.10
2019-05-03T15:04:16.369Z,6.33
2019-05-03T15:06:46.021Z,6.80
2019-05-03T15:09:18.856Z,5.93
2019-05-03T15:11:46.481Z,4.40
2019-05-03T15:14:15.743Z,4.73
2019-05-03T15:16:45.127Z,8.87
2019-05-03T15:19:14.826Z,7.77
2019-05-03T15:21:45.246Z,6.63
2019-05-03T15:24:14.657Z,6.47
2019-05-03T15:26:44.739Z,7.47
2019-05-03T15:29:15.576Z,5.20
2019-05-03T15:31:44.903Z,6.43
2019-05-03T15:34:15.269Z,5.00
2019-05-03T15:36:45.153Z,6.17
2019-05-03T15:39:15.370Z,7.03
2019-05-03T15:41:45.000Z,7.03
2019-05-03T15:44:20.919Z,6.27
2019-05-03T15:46:54.962Z,5.30
2019-05-03T15:49:27.393Z,3.07
2019-05-03T15:51:56.195Z,5.30
2019-05-03T15:54:25.578Z,6.00
2019-05-03T15:56:54.796Z,6.40
2019-05-03T15:59:24.431Z,3.20
2019-05-03T16:01:55.304Z,4.37
2019-05-03T16:04:25.135Z,3.33
2019-05-03T16:06:55.399Z,6.53
2019-05-03T16:09:25.379Z,5.20
2019-05-03T16:11:55.559Z,6.93
2019-05-03T16:14:25.308Z,5.03
2019-05-03T16:16:54.946Z,5.70
2019-05-03T16:19:24.388Z,4.83
2019-05-03T16:21:54.536Z,5.90
2019-05-03T16:24:24.909Z,3.73
2019-05-03T16:27:28.505Z,6.27
2019-05-03T16:29:57.793Z,10.00
2019-05-03T16:32:27.173Z,5.57
2019-05-03T16:34:56.499Z,6.57
2019-05-03T16:37:25.698Z,4.20
2019-05-03T16:39:56.481Z,4.67
2019-05-03T16:42:25.997Z,4.73
2019-05-03T16:44:55.265Z,4.20
2019-05-03T16:47:25.017Z,9.47
2019-05-03T16:49:54.337Z,5.53
2019-05-03T16:52:25.529Z,6.20
2019-05-03T16:54:54.779Z,5.13
2019-05-03T16:57:24.709Z,6.53
2019-05-03T16:59:55.118Z,6.90
2019-05-03T17:02:24.665Z,4.97
2019-05-03T17:05:04.807Z,6.53
2019-05-03T17:07:57.075Z,4.63
2019-05-03T17:10:31.012Z,4.90
2019-05-03T17:13:00.319Z,6.33
2019-05-03T17:15:30.087Z,6.27
2019-05-03T17:17:59.389Z,6.37
2019-05-03T17:20:28.611Z,6.90
2019-05-03T17:22:57.983Z,4.00
2019-05-03T17:25:27.343Z,7.77
2019-05-03T17:27:56.707Z,4.43
2019-05-03T17:30:33.778Z,4.57
2019-05-03T17:32:57.662Z,4.40
2019-05-03T17:35:27.110Z,6.10
2019-05-03T17:37:56.347Z,5.63
2019-05-03T17:40:44.213Z,4.70
2019-05-03T17:43:24.170Z,9.63
2019-05-03T17:45:55.281Z,2.33
2019-05-03T17:48:24.499Z,5.70
2019-05-03T17:50:55.023Z,5.70
2019-05-03T17:53:54.610Z,7.10
2019-05-03T17:56:44.502Z,3.30
2019-05-03T17:59:24.448Z,4.33
2019-05-03T18:02:11.508Z,3.60
2019-05-03T18:05:09.312Z,4.53
2019-05-03T18:07:48.180Z,5.63
2019-05-03T18:10:29.510Z,7.20
2019-05-03T18:12:58.894Z,4.27
2019-05-03T18:15:30.178Z,4.37
2019-05-03T18:17:59.544Z,6.57
2019-05-03T18:20:29.463Z,5.43
2019-05-03T18:22:58.778Z,7.87
2019-05-03T18:25:28.216Z,6.50
2019-05-03T18:27:57.482Z,4.03
2019-05-03T18:30:27.170Z,6.17
2019-05-03T18:32:56.466Z,8.10
2019-05-03T18:35:25.780Z,5.80
2019-05-03T18:37:58.715Z,3.50
2019-05-03T18:40:29.672Z,7.37
2019-05-03T18:43:07.708Z,5.13
2019-05-03T18:45:58.029Z,7.03
2019-05-03T18:48:27.295Z,5.27
2019-05-03T18:50:56.795Z,4.73
2019-05-03T18:53:26.217Z,4.03
2019-05-03T18:55:55.573Z,6.20
2019-05-03T18:58:24.804Z,4.50
2019-05-03T19:00:54.870Z,7.17
2019-05-03T19:03:25.106Z,4.53
2019-05-03T19:05:57.870Z,9.97
2019-05-03T19:09:01.437Z,9.73
2019-05-03T19:11:40.727Z,5.63
2019-05-03T19:14:10.515Z,8.60
2019-05-03T19:17:05.206Z,3.73
2019-05-03T19:19:38.313Z,6.13
2019-05-03T19:22:07.543Z,4.03
2019-05-03T19:24:37.056Z,4.20
2019-05-03T19:27:07.437Z,4.70
2019-05-03T19:29:37.035Z,5.37
2019-05-03T19:32:06.366Z,3.90
2019-05-03T19:34:47.846Z,3.73
2019-05-03T19:37:06.762Z,4.03
2019-05-03T19:39:36.062Z,5.93
2019-05-03T19:42:05.340Z,5.60
2019-05-03T19:44:35.218Z,4.30
2019-05-03T19:47:06.740Z,4.17
2019-05-03T19:49:55.560Z,6.00
2019-05-03T19:52:27.862Z,4.40
2019-05-03T19:54:57.069Z,4.33
2019-05-03T19:57:31.498Z,3.60
2019-05-03T20:00:01.116Z,3.67
2019-05-03T20:02:38.224Z,8.03
2019-05-03T20:05:17.644Z,3.80
2019-05-03T20:08:09.589Z,5.10
2019-05-03T20:10:38.871Z,5.27
2019-05-03T20:13:08.193Z,6.27
2019-05-03T20:15:37.462Z,6.83
2019-05-03T20:18:06.663Z,4.30
2019-05-03T20:20:35.955Z,3.43
2019-05-03T20:23:05.378Z,5.50
2019-05-03T20:25:35.209Z,5.47
2019-05-03T20:28:05.232Z,3.73
2019-05-03T20:30:35.120Z,4.73
2019-05-03T20:33:04.370Z,5.23
2019-05-03T20:35:35.571Z,7.53
2019-05-03T20:38:24.626Z,5.50
2019-05-03T20:41:14.846Z,4.87
2019-05-03T20:44:02.734Z,6.43
2019-05-03T20:46:50.972Z,5.83
2019-05-03T20:49:20.259Z,4.77
2019-05-03T20:51:51.290Z,7.53
2019-05-03T20:54:20.425Z,2.97
2019-05-03T20:56:49.639Z,7.50
2019-05-03T20:59:18.843Z,4.03
2019-05-03T21:02:07.227Z,5.07
2019-05-03T21:04:36.457Z,5.37
2019-05-03T21:07:05.713Z,5.57
2019-05-03T21:09:35.080Z,5.23
2019-05-03T21:12:04.558Z,4.57
2019-05-03T21:14:35.100Z,4.57
2019-05-03T21:17:22.137Z,4.80
2019-05-03T21:19:59.911Z,8.13
2019-05-03T21:22:36.109Z,6.57
2019-05-03T21:25:20.140Z,12.23
2019-05-03T21:27:49.559Z,8.17
2019-05-03T21:30:18.903Z,6.57
2019-05-03T21:32:48.123Z,4.47
2019-05-03T21:35:17.433Z,6.07
2019-05-03T21:37:46.699Z,8.47
2019-05-03T21:40:15.998Z,9.43
2019-05-03T21:42:45.289Z,6.97
2019-05-03T21:45:15.961Z,4.03
2019-05-03T21:47:59.870Z,8.33
2019-05-03T21:50:29.209Z,8.80
2019-05-03T21:53:05.813Z,5.70
2019-05-03T21:55:35.555Z,10.63
2019-05-03T21:58:04.947Z,8.13
2019-05-03T22:00:55.285Z,7.50
2019-05-03T22:03:25.252Z,8.93
2019-05-03T22:05:57.845Z,6.67
2019-05-03T22:08:25.604Z,7.83
2019-05-03T22:10:55.568Z,10.60
2019-05-03T22:13:25.007Z,7.57
2019-05-03T22:16:15.520Z,7.70
2019-05-03T22:18:45.486Z,6.20
2019-05-03T22:21:25.096Z,5.27
2019-05-03T22:24:12.499Z,8.13
2019-05-03T22:26:57.666Z,11.73
2019-05-03T22:29:26.944Z,6.90
2019-05-03T22:31:56.229Z,5.73
2019-05-03T22:34:25.907Z,6.43
2019-05-03T22:36:55.501Z,7.07
2019-05-03T22:39:25.162Z,4.67
2019-05-03T22:41:54.657Z,5.63
2019-05-03T22:44:25.315Z,9.77
2019-05-03T22:46:55.249Z,7.20
2019-05-03T22:49:26.487Z,7.07
2019-05-03T22:51:55.621Z,6.77
2019-05-03T22:54:24.872Z,7.73
2019-05-03T22:56:55.475Z,7.47
2019-05-03T22:59:25.312Z,5.67
2019-05-03T23:01:55.301Z,6.33
2019-05-03T23:04:25.229Z,5.07
2019-05-03T23:06:55.529Z,5.97
2019-05-03T23:09:25.213Z,6.77
2019-05-03T23:11:55.274Z,8.70
2019-05-03T23:14:25.610Z,5.07
2019-05-03T23:16:55.271Z,6.67
2019-05-03T23:19:24.559Z,5.87
2019-05-03T23:22:11.302Z,6.77
2019-05-03T23:24:40.613Z,8.37
2019-05-03T23:27:09.966Z,5.03
2019-05-03T23:29:39.171Z,3.90
2019-05-03T23:32:08.365Z,6.93
2019-05-03T23:34:37.539Z,7.50
2019-05-03T23:37:06.739Z,5.90
2019-05-03T23:39:35.950Z,5.00
2019-05-03T23:42:24.560Z,5.87
2019-05-03T23:44:53.896Z,5.53
2019-05-03T23:47:45.190Z,6.77
2019-05-03T23:50:17.669Z,5.00
2019-05-03T23:52:46.920Z,8.20
2019-05-03T23:55:38.648Z,7.03
2019-05-03T23:58:07.991Z,5.27
